Terminal Aerodrome Forecast
Issued by NWS

Home | Current Version | Previous Version | Text Only | Print | Product List | Glossary On
Versions: 1 2 3 4 5 6 7 8 9 10 11 12 13 14 15 16 17 18 19 20 21 22 23 24 25 26 27 28 29 30 31 32 33 34 35 36 37 38 39 40 41
000
FTUS43 KPAH 271600 AAA
TAFOWB
TAF AMD
KOWB 271600Z 2716/2812 VRB10G25KT 3SM -TSRA BR OVC015CB
     FM271700 23008KT P6SM BKN025
     FM271800 22011KT P6SM BKN050
      TEMPO 2720/2724 5SM -TSRA BR BKN050CB
     FM280100 22003KT P6SM SCT250=

USA.gov is the U.S. government's official web portal to all federal, state and local government web resources and services.